Weather reports worldwide

Advertisment
Hohenpeißenberg, Germany (10962): temperature & dewpoint: 18.06.2018 11:00:00 - 24.06.2018 11:00:00 (CEST)Hohenpeißenberg, Germany (10962): temperature 5cm & temperature -5cm: 18.06.2018 11:00:00 - 24.06.2018 11:00:00 (CEST)Hohenpeißenberg, Germany (10962): temperature -20cm & temperature -100cm: 18.06.2018 11:00:00 - 24.06.2018 11:00:00 (CEST)Hohenpeißenberg, Germany (10962): wind speed & gusts: 18.06.2018 11:00:00 - 24.06.2018 11:00:00 (CEST)Hohenpeißenberg, Germany (10962): wind direction: 18.06.2018 11:00:00 - 24.06.2018 11:00:00 (CEST)Hohenpeißenberg, Germany (10962): visibility: 18.06.2018 11:00:00 - 24.06.2018 11:00:00 (CEST)Hohenpeißenberg, Germany (10962): sunshine duration: 18.06.2018 11:00:00 - 24.06.2018 11:00:00 (CEST)Hohenpeißenberg, Germany (10962): precipitation: 18.06.2018 11:00:00 - 24.06.2018 11:00:00 (CEST)
Date & Time tt [°C] td [°C] tt 5cm [°C] tt -5cm [°C] tt -20cm [°C] tt -100cm [°C] ff [km/h] ff [kn] fx [km/h] fx [kn] dd vv [km] sd [min] rr [mm]
24.06.2018 11:00:00 13,3 7,6 18,1 18,0 16,7 15,6 8 4 16 9 N 25 32 0,0
24.06.2018 10:00:00 12,2 6,9 15,1 16,7 16,7 15,6 3 2 10 5 ENE 25 25 0,0
24.06.2018 09:00:00 11,4 7,0 12,3 15,8 16,7 15,6 0 0 7 4 N 27 39 0,0
24.06.2018 08:00:00 10,8 6,5 10,5 15,1 16,8 15,6 4 2 7 4 SSE 25 28 0,0
24.06.2018 07:00:00 9,7 6,4 9,7 14,6 17,0 15,6 3 1 7 4 SE 25 9 0,0
24.06.2018 06:00:00 8,7 6,4 8,3 14,8 17,3 15,6 2 1 9 5 N 30 0 0,0
24.06.2018 05:00:00 8,9 6,7 8,5 15,0 17,5 15,6 0 0 14 7 N 27 0 0,2
24.06.2018 04:00:00 8,5 6,8 8,1 15,5 17,8 15,6 10 6 21 11 ENE 7 0 0,3
24.06.2018 03:00:00 9,0 6,4 9,1 16,0 18,0 15,6 14 8 22 12 NE 35 0 0,0
24.06.2018 02:00:00 10,0 5,3 10,0 16,5 18,3 15,6 11 6 14 8 NE 46 0 0,0
24.06.2018 01:00:00 10,3 5,3 10,2 17,0 18,6 15,6 11 6 16 9 NNE 49 0 0,0
24.06.2018 00:00:00 10,6 5,6 10,5 17,5 18,9 15,6 9 5 15 8 N 52 0 0,0
23.06.2018 23:00:00 11,0 5,5 10,9 18,2 19,1 15,6 10 5 13 7 N 20 0 0,0
23.06.2018 22:00:00 11,2 5,6 11,2 19,0 19,4 15,6 9 5 18 10 N 20 0 0,0
23.06.2018 21:00:00 12,0 5,2 12,0 20,1 19,5 15,6 12 6 24 13 N 18 28 0,0
23.06.2018 20:00:00 13,0 6,0 14,6 21,2 19,6 15,6 14 8 29 16 N 20 4 0,0
23.06.2018 19:00:00 13,0 5,4 14,4 22,6 19,4 15,6 16 8 29 16 N 40 24 0,0
23.06.2018 18:00:00 14,1 3,9 16,6 23,8 19,2 15,6 14 7 28 15 NNW 45 53 0,0
23.06.2018 17:00:00 15,1 5,3 19,6 23,7 18,8 15,6 11 6 25 13 NNW 45 35 0,0
23.06.2018 16:00:00 15,4 5,2 21,0 24,5 18,3 15,6 13 7 32 18 NW 45 50 0,0
23.06.2018 15:00:00 13,6 4,1 17,0 23,6 17,8 15,6 15 8 26 14 NNW 35 43 0,0
23.06.2018 14:00:00 13,5 4,6 17,9 22,5 17,3 15,6 15 8 26 14 N 35 35 0,0
23.06.2018 13:00:00 13,2 3,6 18,5 21,3 16,7 15,6 8 4 20 11 NW 35 36 0,0
23.06.2018 12:00:00 12,8 4,0 16,8 19,6 16,3 15,5 12 6 18 10 WSW 30 36 0,0
23.06.2018 11:00:00 11,4 4,4 16,3 17,7 16,0 15,5 10 5 18 10 NW 25 45 0,0
23.06.2018 10:00:00 10,2 3,9 15,0 15,6 15,9 15,5 6 3 10 6 NW 30 28 0,0
23.06.2018 09:00:00 8,7 3,5 11,2 14,2 15,9 15,5 6 3 15 8 N 35 49 0,0
23.06.2018 08:00:00 8,7 3,8 10,5 13,3 16,1 15,5 9 5 14 7 NNE 45 60 0,0
23.06.2018 07:00:00 7,9 3,3 9,1 12,7 16,3 15,5 9 5 14 8 NNE 50 29 0,0
23.06.2018 06:00:00 6,5 3,2 5,9 13,0 16,5 15,5 10 6 12 7 N 50 0 0,0
23.06.2018 05:00:00 6,5 3,0 5,8 13,4 16,8 15,5 10 5 12 6 N 48 0 0,0
23.06.2018 04:00:00 7,0 2,9 6,4 13,6 17,1 15,5 11 6 16 9 N 55 0 0,0
23.06.2018 03:00:00 7,5 2,9 7,1 14,0 17,4 15,5 11 6 18 10 N 60 0 0,0
23.06.2018 02:00:00 8,0 2,6 7,4 14,4 17,7 15,5 10 5 17 9 NNW 70 0 0,0
23.06.2018 01:00:00 8,3 2,2 7,4 14,8 18,0 15,5 10 6 19 11 NNW 70 0 0,0
23.06.2018 00:00:00 8,8 2,4 7,6 15,4 18,3 15,5 10 5 13 7 WNW 70 0 0,0
22.06.2018 23:00:00 8,9 2,1 8,4 16,1 18,6 15,5 10 5 16 9 NNW 45 0 0,0
22.06.2018 22:00:00 9,0 2,6 8,3 16,8 18,9 15,5 10 5 21 12 NNW 40 0 0,0
22.06.2018 21:00:00 9,5 3,0 9,2 17,8 19,2 15,5 14 7 28 15 N 25 43 0,0
22.06.2018 20:00:00 10,0 2,6 10,4 18,8 19,3 15,5 13 7 29 16 N 25 23 0,0
22.06.2018 19:00:00 10,4 2,4 11,1 19,7 19,4 15,4 16 9 35 19 N 30 0 0,0
22.06.2018 18:00:00 11,3 3,1 13,0 20,8 19,4 15,4 17 9 36 19 NNW 45 27 0,0
22.06.2018 17:00:00 11,6 3,3 14,1 20,8 19,4 15,4 19 10 39 21 N 45 5 0,0
22.06.2018 16:00:00 11,8 3,0 13,3 21,9 19,2 15,4 14 8 38 20 NW 40 6 0,0
22.06.2018 15:00:00 12,2 2,5 14,4 23,1 18,9 15,4 19 11 42 23 W 30 25 0,0
22.06.2018 14:00:00 12,6 2,7 15,5 22,7 18,5 15,4 17 9 41 22 W 40 46 0,0
22.06.2018 13:00:00 12,1 1,8 15,7 21,4 18,1 15,4 23 12 39 21 W 35 49 0,0
22.06.2018 12:00:00 11,0 3,6 13,3 20,1 17,8 15,4 14 8 39 21 WNW 30 29 0,0
22.06.2018 11:00:00 11,1 4,8 14,6 19,1 17,5 15,4 18 10 33 18 WSW 25 51 0,0
22.06.2018 10:00:00 9,8 3,6 13,6 17,3 17,4 15,4 10 6 25 13 W 30 57 0,0
22.06.2018 09:00:00 9,4 3,2 12,2 15,3 17,6 15,3 9 5 15 8 NW 40 51 0,0
22.06.2018 08:00:00 7,4 2,3 8,6 14,3 17,8 15,3 11 6 21 11 NNW 40 20 0,0
22.06.2018 07:00:00 7,1 2,5 7,8 14,1 18,2 15,3 11 6 19 10 N 40 1 0,0
22.06.2018 06:00:00 6,7 2,1 6,1 14,3 18,6 15,3 9 5 23 12 NNW 35 0 0,0
22.06.2018 05:00:00 7,5 2,6 7,2 14,9 19,1 15,3 16 9 30 16 N 65 0 0,0
22.06.2018 04:00:00 8,2 2,1 7,8 15,6 19,5 15,3 20 11 34 18 N 70 0 0,0
22.06.2018 03:00:00 9,3 2,6 7,9 16,6 20,0 15,3 16 9 30 16 N 70 0 0,0
22.06.2018 02:00:00 9,9 4,2 8,5 17,5 20,4 15,3 19 11 32 17 N 70 0 0,4
22.06.2018 01:00:00 11,3 5,0 10,3 18,7 20,8 15,3 23 13 41 22 N 56 0 0,0
22.06.2018 00:00:00 12,9 11,5 12,7 19,8 21,1 15,3 9 5 34 18 N 24 0 0,5
21.06.2018 23:00:00 14,7 10,7 14,7 20,8 21,4 15,3 22 12 36 20 N 20 0 0,0
21.06.2018 22:00:00 16,1 11,4 16,1 21,7 21,7 15,3 19 10 36 19 N 18 0 0,0
21.06.2018 21:00:00 17,3 11,6 17,3 22,8 21,9 15,2 16 8 28 15 N 25 0 0,0
21.06.2018 20:00:00 18,5 11,4 19,1 23,9 22,0 15,2 13 7 27 14 N 18 6 0,0
21.06.2018 19:00:00 19,3 11,5 20,6 25,0 22,0 15,2 15 8 35 19 N 20 33 0,0
21.06.2018 18:00:00 20,4 13,3 22,7 26,1 21,9 15,2 18 10 36 19 N 10 38 0,0
21.06.2018 17:00:00 21,3 14,3 23,6 26,9 21,7 15,2 20 11 45 25 N 30 42 0,0
21.06.2018 16:00:00 21,1 13,9 22,6 26,7 21,4 15,2 18 10 52 28 WNW 20 15 0,0
21.06.2018 15:00:00 24,4 13,9 27,6 28,2 20,8 15,2 24 13 48 26 W 30 57 0,0
21.06.2018 14:00:00 24,1 14,1 28,1 27,0 20,3 15,2 23 12 43 23 W 40 53 0,0
21.06.2018 13:00:00 23,5 13,5 26,4 25,6 19,8 15,2 21 12 41 22 W 60 36 0,0
21.06.2018 12:00:00 23,8 13,0 27,7 25,1 19,3 15,2 22 12 39 21 WSW 60 59 0,0
21.06.2018 11:00:00 22,8 14,3 25,8 23,0 18,9 15,2 22 12 39 21 SW 75 60 0,0
21.06.2018 10:00:00 22,2 15,5 25,7 21,0 18,7 15,2 19 10 35 19 SW 82 58 0,0
21.06.2018 09:00:00 20,2 13,2 22,4 19,2 18,6 15,2 19 10 29 16 WSW 82 60 0,0
21.06.2018 08:00:00 19,0 11,9 19,7 17,9 18,8 15,2 21 11 29 16 WSW 82 56 0,0
21.06.2018 07:00:00 18,5 11,5 18,6 17,4 19,0 15,1 18 10 26 14 WSW 82 60 0,0
21.06.2018 06:00:00 18,3 12,0 17,2 17,4 19,2 15,1 18 10 24 13 WSW 75 10 0,0
21.06.2018 05:00:00 17,7 12,2 15,4 17,8 19,5 15,1 10 5 15 8 SW 75 0 0,0
21.06.2018 04:00:00 17,6 12,4 15,9 18,2 19,8 15,1 11 6 14 8 WSW 60 0 0,0
21.06.2018 03:00:00 18,3 12,5 14,7 18,7 20,2 15,1 6 3 9 5 S 60 0 0,0
21.06.2018 02:00:00 17,7 12,4 15,1 19,3 20,5 15,1 7 4 11 6 SSE 60 0 0,0
21.06.2018 01:00:00 19,5 12,0 17,4 19,9 20,8 15,1 10 5 14 7 E 60 0 0,0
21.06.2018 00:00:00 19,7 12,3 18,0 20,6 21,2 15,1 10 5 19 10 E 65 0 0,0
20.06.2018 23:00:00 19,3 12,3 17,6 21,5 21,5 15,1 16 9 20 11 NE 60 0 0,0
20.06.2018 22:00:00 19,7 13,0 18,1 22,6 21,8 15,1 15 8 18 10 NNE 70 3 0,0
20.06.2018 21:00:00 20,4 12,9 19,0 24,2 21,9 15,1 13 7 19 10 NNE 75 60 0,0
20.06.2018 20:00:00 21,6 12,9 22,5 26,1 21,9 15,1 13 7 19 10 NNE 60 60 0,0
20.06.2018 19:00:00 22,8 11,9 24,7 27,6 21,7 15,1 11 6 21 11 NNE 60 60 0,0
20.06.2018 18:00:00 23,0 10,9 27,5 28,6 21,3 15,1 11 6 19 10 N 80 60 0,0
20.06.2018 17:00:00 23,6 12,1 28,3 29,1 20,8 15,1 10 5 23 12 NNE 80 60 0,0
20.06.2018 16:00:00 23,3 11,8 28,3 28,8 20,2 15,1 13 7 23 12 NNE 82 60 0,0
20.06.2018 15:00:00 22,7 11,6 27,8 28,3 19,5 15,1 12 7 22 12 NE 82 60 0,0
20.06.2018 14:00:00 22,6 12,3 27,5 27,0 18,9 15,1 11 6 24 13 NNE 82 60 0,0
20.06.2018 13:00:00 22,2 13,4 27,4 25,2 18,2 15,1 13 7 22 12 NNE 82 60 0,0
20.06.2018 12:00:00 20,8 13,0 24,9 23,2 17,7 15,1 11 6 23 13 ENE 82 60 0,0
20.06.2018 11:00:00 19,7 13,7 23,5 21,3 17,2 15,1 11 6 22 12 ENE 82 60 0,0
20.06.2018 10:00:00 18,5 11,9 22,3 19,4 17,0 15,1 8 5 19 11 ENE 82 60 0,0
20.06.2018 09:00:00 18,2 11,8 20,2 17,4 16,9 15,1 8 4 21 12 ESE 82 60 0,0
20.06.2018 08:00:00 17,4 11,5 18,1 16,0 16,9 15,1 8 4 18 10 E 82 60 0,0
20.06.2018 07:00:00 16,6 11,2 16,6 15,2 17,1 15,1 10 5 16 9 E 82 60 0,0
20.06.2018 06:00:00 16,1 11,2 14,8 15,2 17,3 15,1 11 6 15 8 ESE 82 9 0,0
20.06.2018 05:00:00 15,9 11,2 14,1 15,5 17,5 15,1 11 6 15 8 ESE 82 0 0,0
20.06.2018 04:00:00 16,4 11,2 14,6 15,8 17,8 15,1 9 5 14 8 E 70 0 0,0
20.06.2018 03:00:00 16,8 11,2 14,9 16,1 18,0 15,1 11 6 20 11 E 70 0 0,0
20.06.2018 02:00:00 16,7 11,4 15,1 16,5 18,3 15,1 14 8 20 11 ESE 70 0 0,0
20.06.2018 01:00:00 16,3 11,5 15,0 16,9 18,6 15,1 13 7 25 14 ESE 70 0 0,0
20.06.2018 00:00:00 16,9 11,9 15,2 17,4 18,9 15,1 11 6 19 10 E 70 0 0,0
19.06.2018 23:00:00 17,1 11,1 15,5 18,1 19,2 15,1 13 7 16 9 ENE 70 0 0,0
19.06.2018 22:00:00 17,2 11,9 15,5 19,0 19,4 15,1 14 8 18 10 NE 70 2 0,0
19.06.2018 21:00:00 17,5 12,1 16,2 20,2 19,6 15,1 13 7 19 11 NNE 70 60 0,0
19.06.2018 20:00:00 18,7 11,7 19,6 21,5 19,6 15,1 11 6 18 10 NNE 65 60 0,0
19.06.2018 19:00:00 19,9 12,0 21,8 21,8 19,7 15,1 13 7 19 10 NNE 65 22 0,0
19.06.2018 18:00:00 19,2 11,5 19,5 22,9 19,6 15,1 6 4 15 8 NE 65 3 0,0
19.06.2018 17:00:00 18,8 11,5 19,7 24,8 19,2 15,1 11 6 16 8 N 65 38 0,0
19.06.2018 16:00:00 20,1 12,1 24,6 24,0 18,9 15,1 10 5 19 11 N 50 33 0,0
19.06.2018 15:00:00 19,3 10,8 21,9 23,8 18,5 15,1 10 5 17 9 N 50 8 0,0
19.06.2018 14:00:00 19,1 11,0 22,6 24,4 17,9 15,1 8 4 16 8 N 50 30 0,0
19.06.2018 13:00:00 20,1 11,6 26,0 23,8 17,3 15,1 10 5 17 9 N 40 54 0,0
19.06.2018 12:00:00 18,4 10,6 22,7 21,6 16,8 15,1 5 3 11 6 NNW 40 43 0,0
19.06.2018 11:00:00 18,3 11,8 21,6 19,9 16,4 15,1 6 3 16 8 SW 35 39 0,0
19.06.2018 10:00:00 16,4 9,7 19,4 18,5 16,1 15,1 5 3 11 6 SSE 35 58 0,0
19.06.2018 09:00:00 16,4 11,9 18,5 16,6 16,0 15,1 5 3 9 5 WNW 30 33 0,0
19.06.2018 08:00:00 14,3 10,3 14,8 15,2 16,0 15,1 4 2 9 5 W 35 9 0,0
19.06.2018 07:00:00 14,1 9,9 14,2 14,4 16,2 15,1 6 4 11 6 NNW 40 5 0,0
19.06.2018 06:00:00 12,7 10,0 12,2 14,2 16,4 15,1 9 5 13 7 NNW 35 0 0,0
19.06.2018 05:00:00 12,3 9,6 10,9 14,4 16,6 15,1 10 6 16 9 N 30 0 0,0
19.06.2018 04:00:00 12,6 10,9 11,9 14,7 16,8 15,1 11 6 18 10 N 35 0 0,0
19.06.2018 03:00:00 13,2 11,2 12,1 15,3 17,0 15,1 11 6 19 10 W 30 0 0,0
19.06.2018 02:00:00 14,9 11,2 14,4 15,5 17,2 15,1 12 7 16 9 WSW 30 0 0,0
19.06.2018 01:00:00 14,8 10,8 14,0 15,5 17,5 15,1 8 5 12 7 SSW 30 0 0,0
19.06.2018 00:00:00 15,1 10,9 13,2 15,9 17,8 15,1 6 4 9 5 SSW 30 0 0,0
18.06.2018 23:00:00 15,3 11,3 13,1 16,6 18,0 15,1 5 3 11 6 SSW 30 0 0,0
18.06.2018 22:00:00 15,3 11,2 13,3 17,5 18,2 15,1 9 5 12 7 S 28 0 0,0
18.06.2018 21:00:00 14,9 11,7 13,6 18,7 18,3 15,1 9 5 14 7 SSW 28 25 0,0
18.06.2018 20:00:00 15,9 12,3 15,9 20,1 18,2 15,1 10 6 14 7 S 25 46 0,0
18.06.2018 19:00:00 17,7 13,0 19,3 20,5 18,0 15,1 8 4 13 7 S 25 38 0,0
18.06.2018 18:00:00 16,2 13,1 17,2 19,8 17,9 15,1 9 5 14 8 S 20 0 0,0
18.06.2018 17:00:00 16,0 12,8 16,8 20,3 17,8 15,1 9 5 13 7 S 20 0 0,0
18.06.2018 16:00:00 16,8 12,3 17,7 20,2 17,6 15,1 4 2 10 5 W 20 0 0,0
18.06.2018 15:00:00 16,6 12,5 18,3 20,9 17,3 15,1 7 4 16 9 NE 20 18 0,0
18.06.2018 14:00:00 16,1 11,5 18,4 21,0 16,9 15,1 8 5 18 10 N 20 26 0,0
18.06.2018 13:00:00 16,0 11,8 20,1 19,3 16,6 15,1 10 5 15 8 N 18 4 0,0
18.06.2018 12:00:00 14,7 11,4 16,9 18,6 16,4 15,1 8 4 14 7 N 18 0 0,0
18.06.2018 11:00:00 14,7 11,3 17,0 17,8 16,1 15,1 3 2 9 5 ENE 18 26 0,0

tt = temperature
td = dewpoint
tt 5cm = temperature 5cm
tt -5cm = temperature -5cm
tt -20cm = temperature -20cm
tt -100cm = temperature -100cm
ff = wind speed
fx = gusts
dd = wind direction
vv = visibility
sd = sunshine duration
rr = precipitation

Next stations